Time;durP1;ratioP1;P1;durP2;ratioP2;P2;SDS_P1;SDS_P2;PMS_P1;PMS_P2;Temp;Humidity;BMP_temperature;BMP_pressure;BME280_temperature;BME280_humidity;BME280_pressure;Samples;Min_cycle;Max_cycle;Signal;HPM_P1;HPM_P2
2021/06/18 00:00:58;;;;;;;35.95;27.55;;;21.80;99.90;;;;;;5053211;28;20287;-78
2021/06/18 00:03:25;;;;;;;40.33;30.23;;;21.60;99.90;;;;;;5053256;28;20287;-78
2021/06/18 00:05:53;;;;;;;40.63;33.10;;;21.50;99.90;;;;;;5053208;28;20259;-78
2021/06/18 00:08:20;;;;;;;44.40;33.27;;;21.40;99.90;;;;;;5053799;28;20223;-78
2021/06/18 00:10:47;;;;;;;41.87;34.03;;;21.30;99.90;;;;;;5053309;28;20223;-77
2021/06/18 00:13:14;;;;;;;41.87;32.33;;;21.30;99.90;;;;;;5053187;28;20649;-77
2021/06/18 00:15:41;;;;;;;44.27;34.30;;;21.20;99.90;;;;;;5053522;28;20301;-78
2021/06/18 00:18:07;;;;;;;41.03;34.50;;;21.20;99.90;;;;;;5052949;28;20673;-78
2021/06/18 00:20:34;;;;;;;49.93;36.07;;;21.20;99.90;;;;;;5053119;28;20649;-78
2021/06/18 00:23:03;;;;;;;42.27;33.97;;;21.10;99.90;;;;;;5053309;28;20251;-77
2021/06/18 00:25:30;;;;;;;45.47;36.00;;;21.10;99.90;;;;;;5053326;28;20306;-78
2021/06/18 00:27:57;;;;;;;41.97;34.67;;;21.00;99.90;;;;;;5052722;28;20299;-77
2021/06/18 00:30:24;;;;;;;49.40;37.63;;;21.20;99.90;;;;;;5053186;28;20247;-77
2021/06/18 00:32:51;;;;;;;45.67;36.37;;;21.10;99.90;;;;;;5052663;28;20546;-77
2021/06/18 00:35:18;;;;;;;45.03;36.15;;;20.90;99.90;;;;;;5049867;28;20199;-77
2021/06/18 00:37:46;;;;;;;41.90;33.83;;;20.90;99.90;;;;;;5061741;28;20203;-78
2021/06/18 00:40:14;;;;;;;44.43;31.93;;;21.00;99.90;;;;;;5059530;28;20231;-77
2021/06/18 00:42:42;;;;;;;40.03;33.60;;;21.00;99.90;;;;;;5059641;28;20283;-77
2021/06/18 00:45:09;;;;;;;45.10;33.67;;;21.10;99.90;;;;;;5060657;28;20196;-77
2021/06/18 00:47:41;;;;;;;43.67;35.58;;;21.20;99.90;;;;;;5058034;28;20709;-77
2021/06/18 00:50:09;;;;;;;45.45;35.22;;;21.20;99.90;;;;;;5058276;28;20192;-77
2021/06/18 00:52:36;;;;;;;42.08;34.65;;;21.20;99.90;;;;;;5057792;28;20279;-78
2021/06/18 00:55:03;;;;;;;42.10;32.05;;;21.20;99.90;;;;;;5057913;28;20242;-77
2021/06/18 00:57:32;;;;;;;43.80;33.27;;;21.20;99.90;;;;;;5058200;28;20590;-77
2021/06/18 00:59:59;;;;;;;36.30;31.13;;;21.20;99.90;;;;;;5062424;28;20194;-77
2021/06/18 01:02:26;;;;;;;40.00;31.77;;;21.10;99.90;;;;;;5053007;28;20195;-78
2021/06/18 01:04:52;;;;;;;39.42;32.25;;;21.10;99.90;;;;;;5052447;28;20192;-77
2021/06/18 01:07:26;;;;;;;39.95;33.15;;;21.10;99.90;;;;;;5052701;28;20303;-77
2021/06/18 01:10:04;;;;;;;46.70;33.95;;;21.00;99.90;;;;;;5040055;28;20196;-78
2021/06/18 01:12:40;;;;;;;40.67;34.47;;;21.00;99.90;;;;;;5052650;28;20278;-77
2021/06/18 01:15:13;;;;;;;38.80;32.20;;;20.90;99.90;;;;;;5050847;28;20195;-77
2021/06/18 01:17:49;;;;;;;43.60;34.60;;;20.80;99.90;;;;;;5052695;28;20192;-77
2021/06/18 01:20:56;;;;;;;45.00;35.77;;;20.90;99.90;;;;;;5052965;28;20203;-78
2021/06/18 01:23:35;;;;;;;48.43;38.10;;;20.80;99.90;;;;;;5043126;28;20238;-78
2021/06/18 01:26:05;;;;;;;50.08;38.10;;;20.80;99.90;;;;;;5050422;28;20222;-77
2021/06/18 01:28:42;;;;;;;51.33;41.77;;;20.80;99.90;;;;;;5047508;28;20662;-76
2021/06/18 01:31:12;;;;;;;57.03;43.27;;;20.80;99.90;;;;;;5044880;28;20196;-78
2021/06/18 01:33:43;;;;;;;56.97;43.03;;;20.80;99.90;;;;;;5052525;28;20556;-78
2021/06/18 01:36:12;;;;;;;58.17;43.53;;;20.70;99.90;;;;;;5052842;28;20207;-77
2021/06/18 01:38:40;;;;;;;53.53;43.83;;;20.70;99.90;;;;;;5052510;28;20208;-77
2021/06/18 01:41:12;;;;;;;58.33;44.77;;;20.70;99.90;;;;;;5052775;28;20235;-78
2021/06/18 01:43:42;;;;;;;64.23;46.00;;;20.70;99.90;;;;;;5052541;28;20200;-77
2021/06/18 01:46:13;;;;;;;60.90;46.17;;;20.80;99.90;;;;;;5052273;28;20243;-78
2021/06/18 01:48:42;;;;;;;62.00;47.40;;;20.80;99.90;;;;;;5052375;28;20196;-79
2021/06/18 01:51:12;;;;;;;65.27;47.43;;;20.80;99.90;;;;;;5051798;28;20279;-77
2021/06/18 01:53:42;;;;;;;75.80;51.23;;;21.00;99.90;;;;;;5052302;28;20515;-80
2021/06/18 01:56:12;;;;;;;81.47;52.77;;;21.10;99.90;;;;;;5054794;28;20224;-83
2021/06/18 01:58:43;;;;;;;89.97;57.07;;;21.10;99.90;;;;;;5056267;28;20223;-82
2021/06/18 02:01:11;;;;;;;90.87;59.23;;;20.90;99.90;;;;;;5055935;28;20188;-83
2021/06/18 02:03:40;;;;;;;106.57;56.03;;;20.80;99.90;;;;;;5056270;28;20251;-82
2021/06/18 02:06:14;;;;;;;98.63;55.33;;;20.60;99.90;;;;;;5055916;28;20223;-84
2021/06/18 02:08:43;;;;;;;84.60;55.33;;;20.30;99.90;;;;;;5041266;28;20205;-85
2021/06/18 02:11:11;;;;;;;84.50;55.57;;;20.00;99.90;;;;;;5053988;28;20204;-81
2021/06/18 02:13:41;;;;;;;87.47;57.57;;;19.90;99.90;;;;;;5053882;28;20701;-78
2021/06/18 02:16:09;;;;;;;79.17;53.97;;;19.80;99.90;;;;;;5053530;28;20288;-78
2021/06/18 02:18:38;;;;;;;79.70;53.50;;;19.70;99.90;;;;;;5054000;28;20207;-79
2021/06/18 02:21:07;;;;;;;87.90;54.33;;;19.60;99.90;;;;;;5053968;28;20291;-79
2021/06/18 02:23:35;;;;;;;81.60;51.60;;;19.60;99.90;;;;;;5054399;28;20275;-78
2021/06/18 02:26:05;;;;;;;83.47;51.17;;;19.60;99.90;;;;;;5053584;28;20230;-77
2021/06/18 02:28:34;;;;;;;79.87;50.43;;;19.50;99.90;;;;;;5050630;28;20364;-77
2021/06/18 02:31:03;;;;;;;78.77;48.97;;;19.60;99.90;;;;;;5055116;28;20250;-77
2021/06/18 02:33:30;;;;;;;77.57;48.73;;;19.60;99.90;;;;;;5055305;28;20223;-77
2021/06/18 02:35:57;;;;;;;80.77;48.40;;;19.60;99.90;;;;;;5053171;28;20279;-76
2021/06/18 02:38:23;;;;;;;75.37;46.33;;;19.50;99.90;;;;;;5035484;28;20225;-76
2021/06/18 02:40:50;;;;;;;62.50;42.60;;;19.40;99.90;;;;;;5055480;28;20296;-77
2021/06/18 02:43:17;;;;;;;59.97;41.53;;;19.40;99.90;;;;;;5054840;28;20283;-77
2021/06/18 02:45:44;;;;;;;57.23;40.07;;;19.40;99.90;;;;;;5054539;28;20196;-76
2021/06/18 02:48:17;;;;;;;54.87;38.27;;;19.40;99.90;;;;;;5055351;28;20723;-76
2021/06/18 02:50:51;;;;;;;46.27;34.23;;;19.40;99.90;;;;;;5054737;28;20189;-76
2021/06/18 02:53:26;;;;;;;50.03;37.53;;;19.30;99.90;;;;;;5055002;28;20212;-76
2021/06/18 02:55:58;;;;;;;41.07;30.30;;;19.40;99.90;;;;;;5054655;28;20257;-76
2021/06/18 02:58:27;;;;;;;35.53;28.77;;;19.30;99.90;;;;;;5055017;28;20279;-76
2021/06/18 03:00:55;;;;;;;40.80;31.03;;;19.30;99.90;;;;;;5054638;28;20269;-79
2021/06/18 03:03:29;;;;;;;40.37;29.13;;;19.20;99.90;;;;;;5054480;28;20289;-77
2021/06/18 03:06:00;;;;;;;34.60;26.40;;;19.20;99.90;;;;;;5054230;28;20187;-77
2021/06/18 03:08:34;;;;;;;34.30;27.37;;;19.20;99.90;;;;;;5037173;28;20593;-77
2021/06/18 03:11:02;;;;;;;38.63;28.30;;;19.20;99.90;;;;;;5054311;28;20196;-77
2021/06/18 03:13:35;;;;;;;36.83;29.63;;;19.30;99.90;;;;;;5054332;28;20703;-77
2021/06/18 03:16:03;;;;;;;39.77;31.47;;;19.30;99.90;;;;;;5054219;28;20638;-77
2021/06/18 03:18:33;;;;;;;44.33;32.80;;;19.20;99.90;;;;;;5054537;28;20224;-76
2021/06/18 03:21:02;;;;;;;45.27;33.77;;;19.20;99.90;;;;;;5053840;28;20202;-77
2021/06/18 03:23:32;;;;;;;45.47;35.33;;;19.30;99.90;;;;;;5048881;28;20283;-80
2021/06/18 03:26:03;;;;;;;48.63;35.57;;;19.30;99.90;;;;;;5046801;28;20257;-77
2021/06/18 03:28:31;;;;;;;44.83;35.80;;;19.20;99.90;;;;;;5045473;28;20261;-76
2021/06/18 03:30:58;;;;;;;52.10;37.53;;;19.20;99.90;;;;;;5053414;28;20701;-76
2021/06/18 03:33:26;;;;;;;52.07;38.57;;;19.20;99.90;;;;;;5052995;28;20588;-75
2021/06/18 03:35:56;;;;;;;54.33;40.13;;;19.20;99.90;;;;;;5053570;28;20618;-77
2021/06/18 03:38:24;;;;;;;58.57;41.57;;;19.30;99.90;;;;;;5049209;28;20288;-76
2021/06/18 03:40:51;;;;;;;63.63;43.10;;;19.30;99.90;;;;;;5046702;28;20620;-77
2021/06/18 03:43:18;;;;;;;63.17;45.00;;;19.20;99.90;;;;;;5053832;28;20287;-76
2021/06/18 03:45:47;;;;;;;69.40;47.30;;;19.30;99.90;;;;;;5049507;28;20232;-76
2021/06/18 03:48:16;;;;;;;70.27;45.87;;;19.40;99.90;;;;;;5056308;28;20289;-77
2021/06/18 03:50:44;;;;;;;71.23;48.37;;;19.40;99.90;;;;;;5052633;28;20723;-76
2021/06/18 03:53:14;;;;;;;73.83;49.30;;;19.40;99.90;;;;;;5053567;28;20208;-77
2021/06/18 03:55:41;;;;;;;71.47;49.07;;;19.40;99.90;;;;;;5045212;28;20188;-76
2021/06/18 03:58:11;;;;;;;73.90;50.03;;;19.40;99.90;;;;;;5053899;28;20563;-77
2021/06/18 04:00:42;;;;;;;75.93;50.43;;;19.40;99.90;;;;;;5053261;28;20304;-75
2021/06/18 04:03:10;;;;;;;76.47;52.20;;;19.40;99.90;;;;;;5048275;28;20516;-77
2021/06/18 04:05:40;;;;;;;77.53;52.63;;;19.50;99.90;;;;;;5049124;28;20223;-76
2021/06/18 04:08:08;;;;;;;81.83;54.63;;;19.40;99.90;;;;;;5053626;28;20299;-76
2021/06/18 04:10:39;;;;;;;86.53;55.83;;;19.50;99.90;;;;;;5051241;28;20220;-77
2021/06/18 04:13:07;;;;;;;89.77;58.17;;;19.50;99.90;;;;;;5058586;28;20206;-75
2021/06/18 04:15:35;;;;;;;80.90;56.53;;;19.50;99.90;;;;;;5052233;28;20713;-76
2021/06/18 04:18:02;;;;;;;89.77;56.57;;;19.50;99.90;;;;;;5041091;28;20560;-77
2021/06/18 04:20:30;;;;;;;92.47;59.77;;;19.50;99.90;;;;;;5052799;28;20211;-76
2021/06/18 04:22:57;;;;;;;89.93;60.87;;;19.50;99.90;;;;;;5045152;28;20235;-75
2021/06/18 04:25:24;;;;;;;94.07;60.07;;;19.50;99.90;;;;;;5049391;28;20192;-75
2021/06/18 04:27:53;;;;;;;99.30;61.33;;;19.60;99.90;;;;;;5045010;28;20622;-76
2021/06/18 04:30:21;;;;;;;96.40;62.30;;;19.60;99.90;;;;;;5052315;28;20279;-75
2021/06/18 04:32:48;;;;;;;97.30;63.07;;;19.60;99.90;;;;;;5057557;28;20197;-75
2021/06/18 04:35:15;;;;;;;99.57;63.63;;;19.60;99.90;;;;;;5052928;28;20283;-76
2021/06/18 04:37:42;;;;;;;101.97;63.00;;;19.60;99.90;;;;;;5052890;28;20192;-75
2021/06/18 04:40:11;;;;;;;97.40;62.40;;;19.60;99.90;;;;;;5052395;28;20593;-75
2021/06/18 04:42:38;;;;;;;94.83;62.07;;;19.70;99.90;;;;;;5052294;28;20219;-74
2021/06/18 04:45:09;;;;;;;93.20;59.90;;;19.70;99.90;;;;;;5052753;28;20330;-75
2021/06/18 04:47:36;;;;;;;94.43;61.10;;;19.80;99.90;;;;;;5039627;28;20220;-77
2021/06/18 04:50:04;;;;;;;95.60;59.10;;;19.80;99.90;;;;;;5052273;28;20196;-76
2021/06/18 04:52:31;;;;;;;81.07;55.63;;;19.90;99.90;;;;;;5047485;28;20203;-74
2021/06/18 04:55:01;;;;;;;80.20;54.60;;;19.90;99.90;;;;;;5062999;28;20219;-75
2021/06/18 04:57:28;;;;;;;79.13;54.00;;;19.90;99.90;;;;;;5052649;28;20200;-75
2021/06/18 04:59:55;;;;;;;78.57;55.00;;;20.10;99.90;;;;;;5052271;28;20200;-76
2021/06/18 05:02:23;;;;;;;74.73;51.03;;;20.20;99.90;;;;;;5054391;28;20294;-76
2021/06/18 05:04:50;;;;;;;67.57;47.97;;;20.20;99.90;;;;;;5039007;28;20216;-75
2021/06/18 05:07:18;;;;;;;63.67;46.73;;;20.10;99.90;;;;;;5061690;28;20327;-74
2021/06/18 05:09:45;;;;;;;66.27;49.30;;;20.10;99.90;;;;;;5049066;28;20291;-76
2021/06/18 05:12:12;;;;;;;59.73;45.37;;;20.20;99.90;;;;;;5047278;28;20283;-75
2021/06/18 05:14:39;;;;;;;61.70;44.77;;;20.20;99.90;;;;;;5043754;28;20291;-76
2021/06/18 05:17:06;;;;;;;63.17;45.13;;;20.20;99.90;;;;;;5049315;28;20212;-75
2021/06/18 05:19:37;;;;;;;57.70;44.03;;;20.20;99.90;;;;;;5048825;28;20540;-76
2021/06/18 05:22:04;;;;;;;51.33;41.13;;;20.30;99.90;;;;;;5044829;28;20573;-74
2021/06/18 05:24:31;;;;;;;52.77;41.03;;;20.30;99.90;;;;;;5039589;28;20272;-76
2021/06/18 05:26:58;;;;;;;48.03;39.10;;;20.40;99.90;;;;;;5046066;28;20213;-76
2021/06/18 05:29:25;;;;;;;47.60;39.63;;;20.40;99.90;;;;;;5050164;28;20227;-77
2021/06/18 05:31:52;;;;;;;46.13;38.13;;;20.40;99.90;;;;;;5060567;28;20578;-76
2021/06/18 05:34:18;;;;;;;42.10;35.97;;;20.60;99.90;;;;;;5065249;28;20287;-77
2021/06/18 05:36:47;;;;;;;43.63;35.40;;;20.70;99.90;;;;;;5054026;28;20702;-76
2021/06/18 05:39:14;;;;;;;44.73;36.30;;;20.70;99.90;;;;;;5040038;28;20307;-79
2021/06/18 05:41:42;;;;;;;45.97;35.37;;;20.70;99.90;;;;;;5048499;28;20613;-79
2021/06/18 05:44:09;;;;;;;39.87;34.17;;;20.60;99.90;;;;;;5045616;28;20290;-77
2021/06/18 05:46:36;;;;;;;41.83;34.97;;;20.60;99.90;;;;;;5052185;28;20202;-79
2021/06/18 05:49:03;;;;;;;38.57;31.93;;;20.60;99.90;;;;;;5042837;28;20716;-78
2021/06/18 05:51:31;;;;;;;40.20;32.83;;;20.70;99.90;;;;;;5044529;28;20235;-77
2021/06/18 05:53:59;;;;;;;39.53;32.23;;;20.80;99.90;;;;;;5053307;28;20304;-78
2021/06/18 05:56:27;;;;;;;37.60;32.23;;;20.70;99.90;;;;;;5062172;28;20246;-78
2021/06/18 05:58:54;;;;;;;36.10;31.77;;;20.70;99.90;;;;;;5073416;28;20594;-79
2021/06/18 06:01:20;;;;;;;37.60;31.70;;;20.80;99.90;;;;;;5074165;28;20222;-80
2021/06/18 06:03:47;;;;;;;38.13;32.33;;;20.70;99.90;;;;;;5067777;28;20291;-79
2021/06/18 06:06:14;;;;;;;37.10;31.17;;;20.80;99.90;;;;;;5060613;28;20196;-80
2021/06/18 06:08:41;;;;;;;39.83;32.87;;;20.60;99.90;;;;;;5057653;28;20237;-79
2021/06/18 06:11:10;;;;;;;37.13;32.10;;;20.70;99.90;;;;;;5054733;28;20227;-78
2021/06/18 06:13:38;;;;;;;38.77;32.17;;;20.60;99.90;;;;;;5052857;28;20722;-79
2021/06/18 06:16:05;;;;;;;37.07;32.70;;;20.70;99.90;;;;;;5054693;28;20653;-79
2021/06/18 06:18:32;;;;;;;36.93;31.57;;;20.80;99.90;;;;;;5054473;28;20298;-78
2021/06/18 06:20:59;;;;;;;38.97;32.87;;;20.90;99.90;;;;;;5054485;28;20776;-78
2021/06/18 06:23:26;;;;;;;34.60;30.90;;;21.10;99.90;;;;;;5054648;28;20235;-78
2021/06/18 06:25:52;;;;;;;38.93;31.70;;;21.30;99.90;;;;;;5054192;28;20219;-77
2021/06/18 06:28:21;;;;;;;35.20;30.93;;;21.40;99.90;;;;;;5047750;28;20295;-78
2021/06/18 06:30:48;;;;;;;36.60;30.47;;;21.50;99.90;;;;;;5052282;28;20235;-78
2021/06/18 06:33:15;;;;;;;34.37;29.13;;;21.50;99.90;;;;;;5044965;28;20199;-78
2021/06/18 06:35:42;;;;;;;31.67;28.27;;;21.70;99.90;;;;;;5045080;28;20288;-79
2021/06/18 06:38:08;;;;;;;31.77;28.33;;;21.70;99.90;;;;;;5036611;28;20284;-78
2021/06/18 06:40:35;;;;;;;31.77;28.37;;;21.80;99.90;;;;;;5042010;28;20295;-78
2021/06/18 06:43:03;;;;;;;30.77;25.27;;;22.20;99.90;;;;;;5047559;28;20188;-79
2021/06/18 06:45:31;;;;;;;27.15;24.48;;;22.50;99.90;;;;;;5041670;28;20247;-79
2021/06/18 06:47:58;;;;;;;27.35;23.73;;;22.90;99.90;;;;;;5034080;28;20311;-78
2021/06/18 06:50:25;;;;;;;24.77;22.10;;;23.30;99.90;;;;;;5050407;28;20231;-79
2021/06/18 06:52:52;;;;;;;24.88;22.10;;;23.70;99.90;;;;;;5045868;28;20314;-78
2021/06/18 06:55:19;;;;;;;25.88;21.42;;;23.70;99.90;;;;;;5053869;28;20602;-79
2021/06/18 06:57:46;;;;;;;23.90;21.20;;;23.60;99.90;;;;;;5053862;28;20290;-78
2021/06/18 07:00:14;;;;;;;23.17;19.83;;;23.60;99.90;;;;;;5053753;28;20246;-79
2021/06/18 07:02:43;;;;;;;21.20;17.52;;;24.10;99.90;;;;;;5048910;28;20238;-81
2021/06/18 07:05:11;;;;;;;17.88;16.00;;;25.10;99.90;;;;;;5053660;28;20197;-78
2021/06/18 07:07:38;;;;;;;20.55;15.93;;;26.00;99.90;;;;;;5040370;28;20208;-78
2021/06/18 07:10:06;;;;;;;16.98;14.15;;;26.90;99.90;;;;;;5045680;28;20188;-78
2021/06/18 07:12:33;;;;;;;15.52;13.32;;;27.70;99.90;;;;;;5039170;28;20225;-80
2021/06/18 07:15:00;;;;;;;14.50;13.10;;;28.40;99.90;;;;;;5041410;28;20205;-79
2021/06/18 07:17:27;;;;;;;15.45;13.88;;;28.40;99.90;;;;;;5051284;28;20282;-78
2021/06/18 07:20:00;;;;;;;15.48;13.38;;;27.70;99.90;;;;;;5047581;28;20271;-79
2021/06/18 07:22:27;;;;;;;16.48;12.00;;;28.30;99.90;;;;;;5042384;28;20349;-79
2021/06/18 07:24:55;;;;;;;14.10;12.60;;;28.90;99.90;;;;;;5039186;28;20225;-80
2021/06/18 07:27:23;;;;;;;13.85;12.38;;;28.30;99.90;;;;;;5050823;28;20620;-79
2021/06/18 07:29:52;;;;;;;13.75;12.40;;;27.40;99.90;;;;;;5051696;28;20192;-80
2021/06/18 07:32:19;;;;;;;14.85;11.57;;;27.80;99.90;;;;;;5036601;28;20572;-80
2021/06/18 07:34:47;;;;;;;13.60;11.18;;;28.30;99.90;;;;;;5040896;28;20291;-80
2021/06/18 07:37:16;;;;;;;12.63;11.10;;;28.70;99.90;;;;;;5042815;28;20212;-80
2021/06/18 07:39:43;;;;;;;13.00;11.57;;;27.80;99.90;;;;;;5041505;28;20228;-80
2021/06/18 07:42:10;;;;;;;16.67;12.35;;;27.00;99.90;;;;;;5043925;28;20303;-79
2021/06/18 07:44:38;;;;;;;13.63;11.73;;;26.30;99.90;;;;;;5044397;28;20229;-79
2021/06/18 07:47:06;;;;;;;13.15;11.45;;;27.00;99.90;;;;;;5041221;28;20237;-80
2021/06/18 07:49:33;;;;;;;13.55;11.30;;;27.20;99.90;;;;;;5046496;28;20209;-79
2021/06/18 07:52:00;;;;;;;15.75;11.63;;;27.40;99.90;;;;;;5045853;28;20223;-80
2021/06/18 07:54:29;;;;;;;14.45;11.73;;;27.30;99.90;;;;;;5047595;28;20638;-79
2021/06/18 07:56:57;;;;;;;13.07;11.65;;;26.90;99.90;;;;;;5045015;28;20302;-79
2021/06/18 07:59:24;;;;;;;12.23;11.07;;;27.10;99.90;;;;;;5038943;28;20662;-80
2021/06/18 08:01:51;;;;;;;13.05;10.90;;;27.80;99.90;;;;;;5032534;28;20196;-80
2021/06/18 08:04:18;;;;;;;12.77;11.60;;;27.90;99.90;;;;;;5030689;28;20301;-79
2021/06/18 08:06:45;;;;;;;13.57;11.48;;;28.20;99.90;;;;;;5051921;28;20311;-79
2021/06/18 08:09:12;;;;;;;15.07;11.38;;;28.40;99.90;;;;;;5052594;28;20219;-79
2021/06/18 08:11:40;;;;;;;19.23;11.73;;;29.30;99.90;;;;;;5041236;28;20239;-79
2021/06/18 08:14:07;;;;;;;14.85;11.48;;;30.10;99.90;;;;;;5053016;28;20275;-79
2021/06/18 08:16:34;;;;;;;16.35;11.32;;;30.10;99.90;;;;;;5052991;28;20602;-78
2021/06/18 08:19:01;;;;;;;14.82;11.95;;;29.30;99.90;;;;;;5051920;28;20279;-78
2021/06/18 08:21:27;;;;;;;21.48;12.32;;;28.80;99.90;;;;;;5044644;28;20277;-78
2021/06/18 08:23:54;;;;;;;15.45;12.18;;;28.80;99.90;;;;;;5049382;28;20196;-78
2021/06/18 08:26:21;;;;;;;20.23;11.85;;;28.90;99.90;;;;;;5032579;28;20203;-78
2021/06/18 08:28:50;;;;;;;16.10;13.75;;;28.60;99.90;;;;;;5032471;28;20311;-78
2021/06/18 08:31:17;;;;;;;14.65;12.43;;;28.70;99.90;;;;;;5032993;28;20220;-77
2021/06/18 08:33:43;;;;;;;20.13;13.00;;;29.80;99.90;;;;;;5032085;28;20213;-78
2021/06/18 08:36:10;;;;;;;16.27;12.55;;;31.00;99.90;;;;;;5036749;28;20262;-78
2021/06/18 08:38:39;;;;;;;17.02;13.93;;;31.70;99.90;;;;;;5050525;28;20228;-78
2021/06/18 08:41:07;;;;;;;18.13;14.32;;;31.00;99.90;;;;;;5041385;28;20235;-78
2021/06/18 08:43:35;;;;;;;20.80;14.15;;;31.00;99.90;;;;;;5032755;28;20196;-77
2021/06/18 08:46:05;;;;;;;17.95;12.60;;;31.00;99.90;;;;;;5042163;28;20231;-78
2021/06/18 08:48:33;;;;;;;16.58;12.65;;;31.90;99.90;;;;;;5052233;28;20676;-77
2021/06/18 08:51:02;;;;;;;17.73;12.13;;;32.90;99.90;;;;;;5052187;28;20192;-77
2021/06/18 08:53:33;;;;;;;16.88;12.27;;;32.90;99.90;;;;;;5052973;28;20387;-77
2021/06/18 08:56:00;;;;;;;18.88;13.15;;;33.00;99.90;;;;;;5052366;28;20645;-77
2021/06/18 08:58:27;;;;;;;16.50;11.95;;;32.80;99.90;;;;;;5044209;28;20267;-77
2021/06/18 09:00:54;;;;;;;15.13;12.70;;;33.30;99.90;;;;;;5038718;28;20201;-77
2021/06/18 09:03:37;;;;;;;17.63;12.00;;;33.60;99.90;;;;;;5032838;28;20243;-77
2021/06/18 09:06:27;;;;;;;16.50;12.60;;;33.90;99.90;;;;;;5054093;28;20192;-78
2021/06/18 09:09:16;;;;;;;17.50;13.23;;;34.70;99.90;;;;;;5058917;28;20299;-78
2021/06/18 09:11:44;;;;;;;21.48;12.57;;;34.60;99.90;;;;;;5056706;28;20613;-77
2021/06/18 09:14:26;;;;;;;16.77;12.68;;;35.00;99.90;;;;;;5054364;28;20279;-77
2021/06/18 09:17:11;;;;;;;14.88;13.13;;;35.00;99.90;;;;;;5053017;28;20196;-77
2021/06/18 09:19:42;;;;;;;14.55;12.13;;;34.40;99.90;;;;;;5055564;28;20585;-77
2021/06/18 09:22:11;;;;;;;16.10;11.98;;;35.10;99.90;;;;;;5058756;28;20200;-76
2021/06/18 09:24:40;;;;;;;14.18;10.13;;;35.70;99.90;;;;;;5058757;28;20198;-77
2021/06/18 09:27:08;;;;;;;17.40;11.02;;;35.90;99.90;;;;;;5058657;28;20653;-77
2021/06/18 09:29:36;;;;;;;18.20;11.95;;;36.90;99.90;;;;;;5058568;28;20307;-77
2021/06/18 09:32:06;;;;;;;13.68;12.25;;;36.90;99.90;;;;;;5059017;28;20235;-77
2021/06/18 09:34:46;;;;;;;16.80;10.35;;;37.00;99.90;;;;;;5059076;28;20207;-78
2021/06/18 09:37:22;;;;;;;12.15;9.07;;;37.40;99.90;;;;;;5058805;28;20195;-78
2021/06/18 09:39:57;;;;;;;14.77;9.48;;;38.40;99.90;;;;;;5059122;28;20223;-77
2021/06/18 09:42:24;;;;;;;9.95;7.93;;;38.40;99.90;;;;;;5057240;28;20596;-78
2021/06/18 09:45:03;;;;;;;13.13;9.20;;;39.30;99.90;;;;;;5058680;28;20279;-78
2021/06/18 09:47:39;;;;;;;11.32;7.63;;;40.00;99.90;;;;;;5058982;28;20718;-82
2021/06/18 09:50:26;;;;;;;11.98;7.88;;;40.60;99.90;;;;;;5047118;28;20243;-77
2021/06/18 09:52:54;;;;;;;15.38;8.07;;;40.00;99.90;;;;;;5061038;28;20214;-77
2021/06/18 09:55:23;;;;;;;14.85;7.70;;;40.30;99.90;;;;;;5050805;28;20208;-77
2021/06/18 09:57:54;;;;;;;11.18;7.13;;;41.00;99.90;;;;;;5060253;28;20237;-77
2021/06/18 10:00:24;;;;;;;10.85;7.10;;;41.30;99.90;;;;;;5058839;28;20207;-76
2021/06/18 10:02:53;;;;;;;6.80;5.88;;;41.20;99.90;;;;;;5053033;28;20204;-76
2021/06/18 10:05:23;;;;;;;11.13;6.25;;;40.90;99.90;;;;;;5050502;28;20239;-76
2021/06/18 10:07:53;;;;;;;9.57;6.03;;;40.80;99.90;;;;;;5059317;28;20279;-76
2021/06/18 10:10:21;;;;;;;10.13;6.20;;;40.50;99.90;;;;;;5048374;28;20303;-76
2021/06/18 10:12:49;;;;;;;7.80;6.38;;;39.90;99.90;;;;;;5054111;28;20274;-76
2021/06/18 10:15:17;;;;;;;10.93;7.18;;;39.50;99.90;;;;;;5052354;28;20243;-77
2021/06/18 10:17:46;;;;;;;12.68;6.43;;;38.50;99.90;;;;;;5052007;28;20196;-76
2021/06/18 10:20:15;;;;;;;10.00;6.07;;;37.70;99.90;;;;;;5043764;28;20235;-77
2021/06/18 10:22:52;;;;;;;9.32;5.65;;;37.00;99.90;;;;;;5061577;28;20192;-78
2021/06/18 10:25:23;;;;;;;13.13;5.97;;;36.90;99.90;;;;;;5054784;28;20573;-77
2021/06/18 10:27:51;;;;;;;9.18;5.50;;;37.30;99.90;;;;;;5048224;28;20282;-77
2021/06/18 10:30:27;;;;;;;10.88;5.93;;;37.60;99.90;;;;;;5054422;28;20307;-77
2021/06/18 10:32:54;;;;;;;10.15;5.90;;;37.60;99.90;;;;;;5047948;28;20275;-77
2021/06/18 10:35:40;;;;;;;10.98;5.78;;;38.90;99.90;;;;;;5042967;28;20233;-76
2021/06/18 10:38:14;;;;;;;8.45;5.57;;;39.40;99.90;;;;;;5048351;28;20220;-77
2021/06/18 10:40:45;;;;;;;9.23;5.30;;;39.80;99.90;;;;;;5047237;28;20599;-77
2021/06/18 10:43:14;;;;;;;9.30;5.00;;;40.50;99.90;;;;;;5046086;28;20535;-77
2021/06/18 10:46:09;;;;;;;8.85;5.22;;;40.60;99.90;;;;;;5055323;28;20363;-78
2021/06/18 10:49:01;;;;;;;10.00;4.65;;;39.30;99.90;;;;;;5043924;28;20218;-77
2021/06/18 10:51:33;;;;;;;7.40;5.10;;;39.20;99.90;;;;;;5039206;28;20193;-77
2021/06/18 10:54:04;;;;;;;10.07;5.20;;;39.10;99.90;;;;;;5051442;28;20209;-78
2021/06/18 10:57:07;;;;;;;7.68;5.10;;;39.30;99.90;;;;;;5053181;28;20229;-76
2021/06/18 10:59:37;;;;;;;8.77;4.97;;;40.00;99.90;;;;;;5040268;28;20282;-77
2021/06/18 11:02:31;;;;;;;8.35;4.90;;;40.40;99.90;;;;;;5047577;28;20279;-77
2021/06/18 11:04:59;;;;;;;10.52;5.15;;;40.70;99.90;;;;;;5037893;28;20214;-77
2021/06/18 11:07:27;;;;;;;5.45;4.05;;;41.60;99.90;;;;;;5035954;28;20243;-77
2021/06/18 11:09:57;;;;;;;7.72;4.10;;;41.00;96.80;;;;;;5050002;28;20267;-77
2021/06/18 11:12:46;;;;;;;4.50;3.92;;;41.10;97.20;;;;;;5044084;28;20638;-77
2021/06/18 11:15:47;;;;;;;5.55;4.03;;;40.70;97.40;;;;;;5033209;28;20193;-77
2021/06/18 11:18:17;;;;;;;5.22;3.72;;;41.10;96.50;;;;;;4989762;28;20221;-77
2021/06/18 11:20:55;;;;;;;5.80;3.72;;;41.10;96.40;;;;;;4989816;28;20552;-77
2021/06/18 11:23:24;;;;;;;6.05;3.92;;;40.80;97.90;;;;;;5008682;28;20284;-77
2021/06/18 11:26:04;;;;;;;4.28;3.80;;;40.80;95.60;;;;;;5036736;28;20200;-77
2021/06/18 11:28:40;;;;;;;7.50;3.70;;;39.90;96.10;;;;;;5041062;28;20219;-77
2021/06/18 11:31:09;;;;;;;7.22;3.90;;;38.70;97.20;;;;;;5039779;28;20592;-79
2021/06/18 11:34:02;;;;;;;4.35;3.92;;;38.70;97.30;;;;;;5044830;28;20231;-78
2021/06/18 11:36:47;;;;;;;6.03;3.85;;;38.90;96.30;;;;;;5026983;28;20293;-78
2021/06/18 11:39:28;;;;;;;6.72;3.60;;;38.90;96.80;;;;;;5044652;28;20231;-77
2021/06/18 11:42:08;;;;;;;6.50;4.18;;;39.20;95.80;;;;;;5042338;28;20246;-77
2021/06/18 11:44:37;;;;;;;7.70;4.25;;;39.80;97.40;;;;;;5040809;28;20184;-77
2021/06/18 11:47:05;;;;;;;7.05;4.40;;;40.40;95.60;;;;;;5049777;28;20308;-77
2021/06/18 11:49:34;;;;;;;10.23;4.00;;;41.00;96.10;;;;;;5052477;28;20269;-76
2021/06/18 11:52:12;;;;;;;5.97;4.13;;;41.10;95.40;;;;;;5050267;28;20196;-77
2021/06/18 11:54:41;;;;;;;5.28;4.18;;;40.80;95.20;;;;;;5050463;28;20246;-77
2021/06/18 11:57:12;;;;;;;5.60;4.00;;;40.10;94.90;;;;;;5045404;28;20284;-77
2021/06/18 11:59:41;;;;;;;8.20;4.20;;;39.00;95.80;;;;;;5051679;28;20207;-77
2021/06/18 12:02:16;;;;;;;8.50;4.25;;;38.90;96.10;;;;;;5044153;28;20283;-77
2021/06/18 12:04:43;;;;;;;6.50;4.05;;;38.80;96.30;;;;;;5040239;28;20250;-77
2021/06/18 12:07:10;;;;;;;5.78;4.30;;;38.00;97.70;;;;;;5043591;28;20212;-77
2021/06/18 12:09:41;;;;;;;8.38;4.40;;;37.30;97.50;;;;;;5054798;28;20220;-77
2021/06/18 12:12:10;;;;;;;6.07;4.45;;;36.10;97.30;;;;;;5055645;28;20197;-77
2021/06/18 12:14:40;;;;;;;6.93;3.90;;;35.80;99.90;;;;;;5044901;28;20295;-77
2021/06/18 12:17:08;;;;;;;6.40;4.32;;;35.60;98.40;;;;;;5042129;28;20192;-77
2021/06/18 12:19:42;;;;;;;5.65;4.47;;;35.40;98.60;;;;;;5052732;28;20239;-76
2021/06/18 12:22:11;;;;;;;10.00;4.68;;;36.20;98.70;;;;;;5054488;28;20179;-77
2021/06/18 12:24:40;;;;;;;7.72;4.43;;;36.30;97.60;;;;;;5050901;28;20283;-77
2021/06/18 12:27:11;;;;;;;5.47;4.38;;;36.40;98.10;;;;;;5040864;28;20216;-78
2021/06/18 12:29:39;;;;;;;9.52;4.28;;;37.00;98.80;;;;;;5052990;28;20266;-76
2021/06/18 12:32:08;;;;;;;6.28;4.07;;;36.90;98.80;;;;;;5038970;28;20196;-77
2021/06/18 12:34:35;;;;;;;8.55;4.25;;;36.80;99.50;;;;;;5038318;28;20212;-77
2021/06/18 12:37:06;;;;;;;5.47;4.32;;;37.30;98.30;;;;;;5053834;28;20291;-77
2021/06/18 12:39:48;;;;;;;5.50;4.50;;;36.90;97.70;;;;;;5051728;28;20270;-76
2021/06/18 12:42:22;;;;;;;8.55;4.47;;;35.50;98.90;;;;;;5039727;28;20189;-78
2021/06/18 12:45:05;;;;;;;9.35;4.40;;;35.10;99.20;;;;;;5041628;28;20719;-77